• Join FlightAware (Why Join?)
  • Login
  • US Flag 
05:28AM EDT


 

Airport Tracker/Info


-or-


 

Live Flight TrackerFlight Track Log ✈ SWA1718 ✈ 10-May-2013 ✈ KMDW - KBUF

Flight Track Log - Related Links

Times and Time Zones

All times are in EDT time to prevent confusion due to time zone crossing. See the SWA1718 flight status page for this flight to view local times or setup timezone preferences in your user account.

Time Position Orientation Groundspeed Altitude Reporting Facility
EDT Latitude Longitude Course Direction KTS MPH feet Rate Location/Type
11:20PM 41.8167 -87.7500 77° East 199 229 2,100  Level Chicago TRACON
11:21PM 41.8167 -87.6667 90° East 240 276 4,500 1,080 Climbing Chicago TRACON
11:22PM 41.8092 -87.5297 94° East 259 298 4,900 1,260 Climbing Chicago Center
11:23PM 41.7964 -87.4253 99° East 277 319 7,900 3,060 Climbing Chicago Center
11:24PM 41.7850 -87.2969 97° East 289 333 11,200 2,700 Climbing Chicago Center
11:25PM 41.9016 -87.0590 77° East  Level Estimated
11:25PM 41.7733 -87.1792 98° East 316 364 13,400  Level Chicago Center
11:26PM 41.7606 -87.0425 97° East 364 419 15,300 1,860 Climbing Chicago Center
11:27PM 41.7631 -86.8958 89° East 393 452 17,300 2,100 Climbing Chicago Center
11:28PM 41.7644 -86.7453 89° East 405 466 19,600 1,920 Climbing Chicago Center
11:29PM 41.7664 -86.5994 89° East 421 484 21,300 1,740 Climbing Chicago Center
11:30PM 41.7672 -86.4369 90° East 435 501 23,200 1,740 Climbing Chicago Center
11:31PM 41.7756 -86.2711 86° East 448 516 24,900 1,500 Climbing Chicago Center
11:32PM 41.8053 -86.1050 76° East 458 527 26,300 1,440 Climbing Chicago Center
11:33PM 41.8406 -85.8994 77° East 470 541 27,900 1,320 Climbing Chicago Center
11:34PM 41.8703 -85.7242 77° East 479 551 29,100 1,320 Climbing Chicago Center
11:35PM 41.9003 -85.5442 77° East 488 562 30,600 1,260 Climbing Chicago Center
11:36PM 41.9297 -85.3650 77° East 488 562 31,700 900 Climbing Chicago Center
11:37PM 41.9447 -85.2850 76° East 484 557 32,000 1,140 Climbing Cleveland Center
11:38PM 41.9544 -85.1014 86° East 484 557 33,400 1,260 Climbing Cleveland Center
11:39PM 41.9528 -84.9253 91° East 478 550 34,600 780 Climbing Cleveland Center
11:40PM 41.9511 -84.7436 91° East 478 550 35,000 180 Climbing Cleveland Center
11:41PM 41.9492 -84.5647 91° East 483 556 35,000  Level Cleveland Center
11:42PM 41.9492 -84.3833 90° East 483 556 35,000  Level Cleveland Center
11:43PM 41.9439 -84.2239 92° East 478 550 35,000  Level Cleveland Center
11:44PM 41.9744 -84.0439 77° East 478 550 35,000  Level Cleveland Center
11:45PM 42.0131 -83.8669 74° East 483 556 35,000  Level Cleveland Center
11:46PM 42.0492 -83.6900 75° East 488 562 35,000  Level Cleveland Center
11:47PM 42.0919 -83.4961 73° East 488 562 35,000  Level Cleveland Center
11:48PM 42.1269 -83.3408 73° East 488 562 35,000  Level Cleveland Center
11:49PM 42.1647 -83.1436 75° East 482 555 35,000  Level Cleveland Center
11:50PM 42.2019 -82.9686 74° East 482 555 35,000  Level Cleveland Center
11:51PM 42.2367 -82.7931 75° East 482 555 35,000  Level Cleveland Center
11:52PM 42.2733 -82.6233 74° East 482 555 35,000  Level Cleveland Center
11:53PM 42.3075 -82.4475 75° East 477 549 35,000  Level Cleveland Center
11:54PM 42.3436 -82.2744 74° East 472 543 35,000  Level Cleveland Center
11:55PM 42.3792 -82.1011 74° East 472 543 35,000  Level Cleveland Center
11:56PM 42.4128 -81.9247 75° East 477 549 35,000  Level Cleveland Center
11:57PM 42.4458 -81.7536 75° East 472 543 35,000  Level Cleveland Center
11:58PM 42.4808 -81.5797 75° East 472 543 35,000  Level Cleveland Center
11:59PM 42.5136 -81.4000 76° East 472 543 35,000  Level Cleveland Center
12:00AM 42.5458 -81.2286 76° East 473 544 35,000  Level Cleveland Center
12:01AM 42.5739 -81.0767 76° East 467 537 35,000  Level Cleveland Center
12:02AM 42.6078 -80.9047 75° East 472 543 35,000 -180 Level Cleveland Center
12:03AM 42.6394 -80.7244 77° East 472 543 34,700 -1,680 Descending Cleveland Center
12:04AM 42.6728 -80.5522 75° East 472 543 31,700 -3,300 Descending Cleveland Center
12:05AM 42.7017 -80.3769 77° East 467 537 28,200 -3,420 Descending Cleveland Center
12:06AM 42.7389 -80.1817 75° East 477 549 24,900 -2,700 Descending Cleveland Center
12:07AM 42.7631 -80.0119 79° East 471 542 22,800 -2,220 Descending Cleveland Center
12:08AM 42.7686 -79.8592 87° East 455 524 20,500 -2,460 Descending Cleveland Center
12:09AM 42.7758 -79.7008 86° East 431 496 17,900 -2,580 Descending Cleveland Center
12:10AM 42.7806 -79.5422 88° East 419 482 15,500 -2,280 Descending Cleveland Center
12:11AM 42.7875 -79.3950 86° East 404 465 13,400 -2,160 Descending Cleveland Center
12:12AM 42.8194 -79.2614 72° East 382 440 11,200 -1,620 Descending Cleveland Center
12:13AM 42.8597 -79.1331 67° East 364 419 10,200 -1,320 Descending Cleveland Center
12:14AM 42.8978 -79.0189 66° East 321 369 8,600 -1,620 Descending Cleveland Center
12:15AM 42.9550 -78.9436 44° Northeast 308 354 7,000 -1,560 Descending Cleveland Center
12:16AM 43.0164 -78.8711 41° Northeast 302 348 5,500 -1,620 Descending Cleveland Center
12:16AM 43.0333 -78.8333 58° Northeast 299 344 4,900 -1,260 Descending Buffalo TRACON
12:17AM 43.1000 -78.7667 36° Northeast 289 333 4,000 -1,320 Descending Buffalo TRACON
12:18AM 43.0833 -78.6667 103° East 265 305 2,500 -900 Descending Buffalo TRACON
12:19AM 43.0792 -78.6133 96° East 236 272 2,500  Level Cleveland Center
12:21AM 43.0167 -78.6333 193° South 172 198 2,500 -300 Level Buffalo TRACON
12:22AM 42.9833 -78.6667 216° Southwest 139 160 1,700 -720 Descending Buffalo TRACON
12:23AM 42.9667 -78.7000 236° Southwest 113 130 1,100 -600 Descending Buffalo TRACON